Time;durP1;ratioP1;P1;durP2;ratioP2;P2;SDS_P1;SDS_P2;PMS_P1;PMS_P2;Temp;Humidity;BMP_temperature;BMP_pressure;BME280_temperature;BME280_humidity;BME280_pressure;Samples;Min_cycle;Max_cycle;Signal;HPM_P1;HPM_P2
2022/10/22 00:01:19;;;;;;;16.87;4.07;;;;;;;;;;4990575;28;20285;-66
2022/10/22 00:03:44;;;;;;;10.25;3.85;;;;;;;;;;4990653;28;20258;-66
2022/10/22 00:06:09;;;;;;;9.65;3.55;;;;;;;;;;4990252;28;20030;-67
2022/10/22 00:08:34;;;;;;;7.30;3.40;;;;;;;;;;4990584;28;20031;-66
2022/10/22 00:11:06;;;;;;;13.98;3.95;;;;;;;;;;4991123;28;20254;-67
2022/10/22 00:16:34;;;;;;;18.95;3.80;;;;;;;;;;4996152;28;20025;-67
2022/10/22 00:18:59;;;;;;;12.82;3.97;;;;;;;;;;4996829;28;20030;-67
2022/10/22 00:21:27;;;;;;;16.35;4.70;;;;;;;;;;5000527;28;20047;-66
2022/10/22 00:23:53;;;;;;;15.60;4.47;;;;;;;;;;4998936;28;20077;-67
2022/10/22 00:26:18;;;;;;;11.60;4.63;;;;;;;;;;5002006;28;20029;-67
2022/10/22 00:28:43;;;;;;;20.63;3.53;;;;;;;;;;5000819;28;20321;-67
2022/10/22 00:31:08;;;;;;;10.33;4.17;;;;;;;;;;5003298;28;20272;-67
2022/10/22 00:33:33;;;;;;;8.82;3.67;;;;;;;;;;4999788;28;20277;-66
2022/10/22 00:35:59;;;;;;;12.77;4.53;;;;;;;;;;4994980;28;20034;-66
2022/10/22 00:38:24;;;;;;;13.90;4.40;;;;;;;;;;4995506;28;20030;-67
2022/10/22 00:40:49;;;;;;;12.07;4.20;;;;;;;;;;5001805;28;20034;-66
2022/10/22 00:43:15;;;;;;;12.30;4.90;;;;;;;;;;5009259;28;20448;-67
2022/10/22 00:45:40;;;;;;;15.32;3.85;;;;;;;;;;5000011;28;20030;-67
2022/10/22 00:48:15;;;;;;;14.25;3.80;;;;;;;;;;5000426;28;20029;-66
2022/10/22 00:50:42;;;;;;;19.13;4.32;;;;;;;;;;5000409;28;20060;-66
2022/10/22 00:53:09;;;;;;;17.85;3.72;;;;;;;;;;5004823;28;20050;-66
2022/10/22 00:55:35;;;;;;;10.20;3.35;;;;;;;;;;5003105;28;20382;-67
2022/10/22 00:58:01;;;;;;;20.25;3.97;;;;;;;;;;5000685;28;20041;-67
2022/10/22 01:00:26;;;;;;;21.48;4.90;;;;;;;;;;4998617;28;20054;-66
2022/10/22 01:02:52;;;;;;;20.17;4.32;;;;;;;;;;5000623;28;20025;-67
2022/10/22 01:05:17;;;;;;;12.05;3.95;;;;;;;;;;4999049;28;20461;-66
2022/10/22 01:07:52;;;;;;;8.85;3.47;;;;;;;;;;5000770;28;21982;-68
2022/10/22 01:10:23;;;;;;;22.23;4.13;;;;;;;;;;5002247;28;20120;-66
2022/10/22 01:13:07;;;;;;;12.65;3.88;;;;;;;;;;4997844;28;20088;-67
2022/10/22 01:15:37;;;;;;;10.20;4.30;;;;;;;;;;4999991;28;20028;-66
2022/10/22 01:18:21;;;;;;;15.20;3.50;;;;;;;;;;5000558;28;20536;-66
2022/10/22 01:21:00;;;;;;;11.65;4.22;;;;;;;;;;4996834;28;20383;-66
2022/10/22 01:23:28;;;;;;;13.65;3.90;;;;;;;;;;4996189;28;20029;-66
2022/10/22 01:26:12;;;;;;;14.52;5.00;;;;;;;;;;5003905;28;20069;-67
2022/10/22 01:28:43;;;;;;;21.48;4.13;;;;;;;;;;4996155;28;20022;-67
2022/10/22 01:31:09;;;;;;;16.30;4.07;;;;;;;;;;5000543;28;20379;-66
2022/10/22 01:33:35;;;;;;;10.60;3.85;;;;;;;;;;5004732;28;20013;-66
2022/10/22 01:36:01;;;;;;;10.40;3.50;;;;;;;;;;4994284;28;20022;-66
2022/10/22 01:38:26;;;;;;;12.95;3.92;;;;;;;;;;4995835;28;20026;-66
2022/10/22 01:40:51;;;;;;;9.73;4.10;;;;;;;;;;5000871;28;20072;-66
2022/10/22 01:43:16;;;;;;;14.50;3.90;;;;;;;;;;5008560;28;20276;-66
2022/10/22 01:45:44;;;;;;;19.45;4.25;;;;;;;;;;4996875;28;20480;-67
2022/10/22 01:48:15;;;;;;;14.95;4.30;;;;;;;;;;4980374;28;20025;-66
2022/10/22 01:50:47;;;;;;;12.27;4.60;;;;;;;;;;4999159;28;20022;-66
2022/10/22 01:53:31;;;;;;;11.40;4.20;;;;;;;;;;5003604;28;20028;-67
2022/10/22 01:56:11;;;;;;;17.55;5.10;;;;;;;;;;4994209;28;20495;-68
2022/10/22 01:58:59;;;;;;;13.98;5.55;;;;;;;;;;4992155;28;20034;-66
2022/10/22 02:01:35;;;;;;;14.20;4.43;;;;;;;;;;5001345;28;20037;-67
2022/10/22 02:04:03;;;;;;;17.60;4.53;;;;;;;;;;5001990;28;20432;-67
2022/10/22 02:06:30;;;;;;;6.90;3.88;;;;;;;;;;4988942;28;20113;-67
2022/10/22 02:08:57;;;;;;;9.48;4.15;;;;;;;;;;4986945;28;20074;-66
2022/10/22 02:11:22;;;;;;;16.58;4.00;;;;;;;;;;4996817;28;20552;-66
2022/10/22 02:13:50;;;;;;;12.33;4.33;;;;;;;;;;4996544;28;20055;-66
2022/10/22 02:16:27;;;;;;;21.98;4.53;;;;;;;;;;5001989;28;20304;-67
2022/10/22 02:18:54;;;;;;;11.65;4.40;;;;;;;;;;4999434;28;20034;-66
2022/10/22 02:21:20;;;;;;;6.38;4.00;;;;;;;;;;5001888;28;20044;-67
2022/10/22 02:23:45;;;;;;;17.60;4.28;;;;;;;;;;5002641;28;20495;-67
2022/10/22 02:26:22;;;;;;;13.23;4.00;;;;;;;;;;4993517;28;20034;-66
2022/10/22 02:29:00;;;;;;;14.52;4.35;;;;;;;;;;4994186;28;20029;-66
2022/10/22 02:31:27;;;;;;;12.55;4.75;;;;;;;;;;5001318;28;20026;-67
2022/10/22 02:33:54;;;;;;;23.25;5.15;;;;;;;;;;4998608;28;20015;-68
2022/10/22 02:36:21;;;;;;;9.95;4.30;;;;;;;;;;4995267;28;20023;-67
2022/10/22 02:38:46;;;;;;;8.73;4.13;;;;;;;;;;4998310;28;20049;-67
2022/10/22 02:41:12;;;;;;;9.23;3.08;;;;;;;;;;5002753;28;20029;-66
2022/10/22 02:43:41;;;;;;;6.70;2.75;;;;;;;;;;4995348;28;20026;-67
2022/10/22 02:46:07;;;;;;;16.13;4.10;;;;;;;;;;4993288;28;20562;-67
2022/10/22 02:48:32;;;;;;;11.90;4.18;;;;;;;;;;4986323;28;20109;-67
2022/10/22 02:50:57;;;;;;;11.43;3.72;;;;;;;;;;4998904;28;20050;-67
2022/10/22 02:53:23;;;;;;;21.57;5.17;;;;;;;;;;4995277;28;20050;-66
2022/10/22 02:55:48;;;;;;;13.93;4.53;;;;;;;;;;4990705;28;20250;-67
2022/10/22 02:58:13;;;;;;;12.17;3.90;;;;;;;;;;4991369;28;20030;-67
2022/10/22 03:00:38;;;;;;;12.15;3.47;;;;;;;;;;4991263;28;20427;-68
2022/10/22 03:03:03;;;;;;;21.33;4.50;;;;;;;;;;4990807;28;20030;-67
2022/10/22 03:05:28;;;;;;;10.85;4.63;;;;;;;;;;4990932;28;20038;-67
2022/10/22 03:07:54;;;;;;;11.18;4.45;;;;;;;;;;4991034;28;20022;-66
2022/10/22 03:10:19;;;;;;;17.07;4.57;;;;;;;;;;4990890;28;20019;-67
2022/10/22 03:12:44;;;;;;;11.40;3.93;;;;;;;;;;4990674;28;20253;-67
2022/10/22 03:15:09;;;;;;;14.07;4.50;;;;;;;;;;4991029;28;20246;-67
2022/10/22 03:17:34;;;;;;;17.20;4.37;;;;;;;;;;4990698;28;20033;-67
2022/10/22 03:19:59;;;;;;;16.85;3.88;;;;;;;;;;4991150;28;20607;-67
2022/10/22 03:22:28;;;;;;;13.38;4.40;;;;;;;;;;4991263;28;20030;-66
2022/10/22 03:24:57;;;;;;;13.90;4.40;;;;;;;;;;4990290;28;20105;-67
2022/10/22 03:27:22;;;;;;;14.55;5.00;;;;;;;;;;4991060;28;20030;-67
2022/10/22 03:29:48;;;;;;;15.20;4.75;;;;;;;;;;4993023;28;20104;-67
2022/10/22 03:32:13;;;;;;;15.70;5.10;;;;;;;;;;4999686;28;20082;-66
2022/10/22 03:34:39;;;;;;;13.97;5.43;;;;;;;;;;4994430;28;20061;-67
2022/10/22 03:37:04;;;;;;;12.10;5.27;;;;;;;;;;5001737;28;20261;-66
2022/10/22 03:39:31;;;;;;;11.77;4.35;;;;;;;;;;4998601;28;20331;-66
2022/10/22 03:41:56;;;;;;;15.82;5.15;;;;;;;;;;4995015;28;20774;-68
2022/10/22 03:44:25;;;;;;;15.50;4.53;;;;;;;;;;4998710;28;20057;-67
2022/10/22 03:46:50;;;;;;;12.55;4.28;;;;;;;;;;5003333;28;20073;-67
2022/10/22 03:49:15;;;;;;;14.98;5.10;;;;;;;;;;4998095;28;20029;-66
2022/10/22 03:51:41;;;;;;;12.73;4.75;;;;;;;;;;4998843;28;20037;-67
2022/10/22 03:54:06;;;;;;;13.07;5.17;;;;;;;;;;4997586;28;20053;-66
2022/10/22 03:56:31;;;;;;;12.00;4.33;;;;;;;;;;4975646;28;20333;-67
2022/10/22 03:58:57;;;;;;;12.32;4.90;;;;;;;;;;4993571;28;20619;-67
2022/10/22 04:01:22;;;;;;;10.30;4.82;;;;;;;;;;5003617;28;20030;-67
2022/10/22 04:03:47;;;;;;;8.30;4.43;;;;;;;;;;5000122;28;20019;-67
2022/10/22 04:06:12;;;;;;;14.43;4.60;;;;;;;;;;5009217;28;20034;-66
2022/10/22 04:08:38;;;;;;;18.87;4.67;;;;;;;;;;4997153;28;20038;-67
2022/10/22 04:11:03;;;;;;;16.75;4.85;;;;;;;;;;5000157;28;20277;-67
2022/10/22 04:13:28;;;;;;;9.73;4.70;;;;;;;;;;4999167;28;20506;-66
2022/10/22 04:15:54;;;;;;;12.27;4.83;;;;;;;;;;4987154;28;20387;-67
2022/10/22 04:18:20;;;;;;;10.18;4.70;;;;;;;;;;4996372;28;20022;-67
2022/10/22 04:20:45;;;;;;;14.07;4.78;;;;;;;;;;5001299;28;20050;-66
2022/10/22 04:23:11;;;;;;;11.70;4.07;;;;;;;;;;5005069;28;20034;-66
2022/10/22 04:25:36;;;;;;;16.33;4.00;;;;;;;;;;4988749;28;20395;-67
2022/10/22 04:28:01;;;;;;;12.47;4.87;;;;;;;;;;4989969;28;20033;-67
2022/10/22 04:30:26;;;;;;;18.05;6.38;;;;;;;;;;5002330;28;20268;-66
2022/10/22 04:32:51;;;;;;;12.70;4.07;;;;;;;;;;5003232;28;20015;-67
2022/10/22 04:35:17;;;;;;;12.37;4.80;;;;;;;;;;5005064;28;20527;-67
2022/10/22 04:37:42;;;;;;;12.57;4.43;;;;;;;;;;5001591;28;20014;-66
2022/10/22 04:40:07;;;;;;;16.63;4.63;;;;;;;;;;5000656;28;20313;-67
2022/10/22 04:42:32;;;;;;;12.88;4.25;;;;;;;;;;4997110;28;20280;-66
2022/10/22 04:44:58;;;;;;;10.10;4.90;;;;;;;;;;5002273;28;20047;-67
2022/10/22 04:47:23;;;;;;;13.93;4.47;;;;;;;;;;5007756;28;20266;-67
2022/10/22 04:49:48;;;;;;;11.88;4.75;;;;;;;;;;5002567;28;20043;-66
2022/10/22 04:52:13;;;;;;;17.33;5.07;;;;;;;;;;5004818;28;20040;-67
2022/10/22 04:54:38;;;;;;;12.68;4.60;;;;;;;;;;4999813;28;20033;-66
2022/10/22 04:57:03;;;;;;;17.70;4.63;;;;;;;;;;4999678;28;20050;-66
2022/10/22 04:59:29;;;;;;;14.57;5.77;;;;;;;;;;5003041;28;20030;-67
2022/10/22 05:01:54;;;;;;;9.30;4.90;;;;;;;;;;4997415;28;20265;-67
2022/10/22 05:04:19;;;;;;;15.10;5.50;;;;;;;;;;5001893;28;20342;-67
2022/10/22 05:06:44;;;;;;;17.40;5.43;;;;;;;;;;4999341;28;20030;-67
2022/10/22 05:09:11;;;;;;;23.02;5.38;;;;;;;;;;5002085;28;20040;-67
2022/10/22 05:11:37;;;;;;;10.77;4.85;;;;;;;;;;4999366;28;20025;-67
2022/10/22 05:14:04;;;;;;;14.13;5.38;;;;;;;;;;5003602;28;20030;-67
2022/10/22 05:16:30;;;;;;;19.33;6.03;;;;;;;;;;4989281;28;20117;-67
2022/10/22 05:18:56;;;;;;;15.75;6.05;;;;;;;;;;4998663;28;20105;-66
2022/10/22 05:21:21;;;;;;;19.85;6.78;;;;;;;;;;4997498;28;20018;-66
2022/10/22 05:23:48;;;;;;;18.80;5.80;;;;;;;;;;4997339;28;20585;-65
2022/10/22 05:26:14;;;;;;;20.40;6.10;;;;;;;;;;5002810;28;20265;-65
2022/10/22 05:28:39;;;;;;;30.13;6.15;;;;;;;;;;4999570;28;20036;-67
2022/10/22 05:31:05;;;;;;;27.00;6.20;;;;;;;;;;5002798;28;20096;-65
2022/10/22 05:33:31;;;;;;;17.95;6.00;;;;;;;;;;4996681;28;20292;-66
2022/10/22 05:35:56;;;;;;;24.98;5.85;;;;;;;;;;4993129;28;20365;-68
2022/10/22 05:38:22;;;;;;;11.88;5.55;;;;;;;;;;4998754;28;20033;-65
2022/10/22 05:40:47;;;;;;;12.95;5.90;;;;;;;;;;5002854;28;20367;-66
2022/10/22 05:43:12;;;;;;;10.20;5.72;;;;;;;;;;5003186;28;20032;-65
2022/10/22 05:45:38;;;;;;;17.40;5.63;;;;;;;;;;4995277;28;20093;-66
2022/10/22 05:48:03;;;;;;;17.90;6.28;;;;;;;;;;4998887;28;20029;-67
2022/10/22 05:50:29;;;;;;;20.25;6.38;;;;;;;;;;5002582;28;20028;-67
2022/10/22 05:52:54;;;;;;;15.03;6.43;;;;;;;;;;5002826;28;20017;-65
2022/10/22 05:55:19;;;;;;;19.52;7.28;;;;;;;;;;4996298;28;20273;-66
2022/10/22 05:57:44;;;;;;;13.20;6.27;;;;;;;;;;4995463;28;20093;-65
2022/10/22 06:00:10;;;;;;;10.20;5.75;;;;;;;;;;4996202;28;20335;-66
2022/10/22 06:02:35;;;;;;;11.70;5.43;;;;;;;;;;4996327;28;20491;-65
2022/10/22 06:05:00;;;;;;;9.90;4.50;;;;;;;;;;4998412;28;20104;-67
2022/10/22 06:07:25;;;;;;;11.03;5.60;;;;;;;;;;4995709;28;20280;-67
2022/10/22 06:09:52;;;;;;;15.07;6.22;;;;;;;;;;4997154;28;20285;-67
2022/10/22 06:12:17;;;;;;;16.05;5.47;;;;;;;;;;4997113;28;20031;-67
2022/10/22 06:14:42;;;;;;;22.53;7.77;;;;;;;;;;4994378;28;20018;-67
2022/10/22 06:17:08;;;;;;;7.13;5.03;;;;;;;;;;4990083;28;20292;-65
2022/10/22 06:19:33;;;;;;;18.52;4.97;;;;;;;;;;4991034;28;20824;-68
2022/10/22 06:21:58;;;;;;;16.65;5.88;;;;;;;;;;4996069;28;20018;-65
2022/10/22 06:24:23;;;;;;;12.55;5.78;;;;;;;;;;4991433;28;20014;-66
2022/10/22 06:26:49;;;;;;;12.38;5.45;;;;;;;;;;4996256;28;20039;-70
2022/10/22 06:29:14;;;;;;;19.45;5.43;;;;;;;;;;4999591;28;20022;-66
2022/10/22 06:31:40;;;;;;;21.90;4.30;;;;;;;;;;4998536;28;20026;-69
2022/10/22 06:34:06;;;;;;;23.63;4.43;;;;;;;;;;4998021;28;20038;-65
2022/10/22 06:36:31;;;;;;;4.72;2.60;;;;;;;;;;4989615;28;20482;-65
2022/10/22 06:38:57;;;;;;;14.23;5.97;;;;;;;;;;4998938;28;20068;-66
2022/10/22 06:41:22;;;;;;;5.30;3.17;;;;;;;;;;4996004;28;20037;-65
2022/10/22 06:43:47;;;;;;;13.63;5.07;;;;;;;;;;4992815;28;20022;-66
2022/10/22 06:46:13;;;;;;;11.77;4.23;;;;;;;;;;4997645;28;20761;-66
2022/10/22 06:48:39;;;;;;;14.57;5.85;;;;;;;;;;4997566;28;20311;-67
2022/10/22 06:51:05;;;;;;;8.80;3.20;;;;;;;;;;5000654;28;20702;-65
2022/10/22 06:53:31;;;;;;;11.80;2.85;;;;;;;;;;5000487;28;20022;-65
2022/10/22 06:55:56;;;;;;;11.02;3.55;;;;;;;;;;4994019;28;20372;-65
2022/10/22 06:58:21;;;;;;;11.73;4.32;;;;;;;;;;4994119;28;20026;-68
2022/10/22 07:00:46;;;;;;;19.23;4.97;;;;;;;;;;4994634;28;20065;-65
2022/10/22 07:03:12;;;;;;;20.48;4.55;;;;;;;;;;5000062;28;20471;-66
2022/10/22 07:05:38;;;;;;;11.43;4.10;;;;;;;;;;4994716;28;20030;-66
2022/10/22 07:08:03;;;;;;;12.52;3.97;;;;;;;;;;4997639;28;20041;-66
2022/10/22 07:10:28;;;;;;;13.95;4.03;;;;;;;;;;4998876;28;20022;-65
2022/10/22 07:12:53;;;;;;;5.10;3.20;;;;;;;;;;4997183;28;20018;-65
2022/10/22 07:15:18;;;;;;;12.77;3.60;;;;;;;;;;5000665;28;20843;-67
2022/10/22 07:17:44;;;;;;;12.37;3.97;;;;;;;;;;4986272;28;20018;-67
2022/10/22 07:20:09;;;;;;;15.23;4.63;;;;;;;;;;5001840;28;20109;-67
2022/10/22 07:22:34;;;;;;;9.02;3.33;;;;;;;;;;4989846;28;20097;-65
2022/10/22 07:24:59;;;;;;;10.90;3.87;;;;;;;;;;4997834;28;20093;-66
2022/10/22 07:27:25;;;;;;;11.90;3.72;;;;;;;;;;5000386;28;20045;-65
2022/10/22 07:29:50;;;;;;;6.57;2.37;;;;;;;;;;4993383;28;20041;-66
2022/10/22 07:32:15;;;;;;;4.95;2.30;;;;;;;;;;4997249;28;20726;-65
2022/10/22 07:34:40;;;;;;;10.07;2.77;;;;;;;;;;4999860;28;20150;-68
2022/10/22 07:37:05;;;;;;;17.63;3.65;;;;;;;;;;5011917;28;20033;-66
2022/10/22 07:39:30;;;;;;;6.73;2.97;;;;;;;;;;5004929;28;20040;-68
2022/10/22 07:41:55;;;;;;;8.27;2.90;;;;;;;;;;5014716;28;20017;-65
2022/10/22 07:44:21;;;;;;;6.60;2.97;;;;;;;;;;5005355;28;20100;-67
2022/10/22 07:46:46;;;;;;;7.93;3.33;;;;;;;;;;5009099;28;20381;-65
2022/10/22 07:49:11;;;;;;;7.03;2.00;;;;;;;;;;5005484;28;20034;-66
2022/10/22 07:51:36;;;;;;;9.43;3.10;;;;;;;;;;5003036;28;20489;-65
2022/10/22 07:54:01;;;;;;;8.30;2.90;;;;;;;;;;5002989;28;20109;-65
2022/10/22 07:56:26;;;;;;;12.70;2.50;;;;;;;;;;4994137;28;20018;-65
2022/10/22 07:58:52;;;;;;;4.90;2.00;;;;;;;;;;4997430;28;20054;-66
2022/10/22 08:01:17;;;;;;;5.63;2.23;;;;;;;;;;5002322;28;20400;-66
2022/10/22 08:03:42;;;;;;;5.60;2.27;;;;;;;;;;4996582;28;20273;-71
2022/10/22 08:06:08;;;;;;;4.77;2.20;;;;;;;;;;5002585;28;20287;-67
2022/10/22 08:08:33;;;;;;;15.27;2.33;;;;;;;;;;5001302;28;20289;-66
2022/10/22 08:10:59;;;;;;;7.47;2.97;;;;;;;;;;4999623;28;20014;-65
2022/10/22 08:13:25;;;;;;;19.65;1.60;;;;;;;;;;4999374;28;20041;-66
2022/10/22 08:15:50;;;;;;;10.55;2.67;;;;;;;;;;5007355;28;20474;-67
2022/10/22 08:18:15;;;;;;;11.43;2.20;;;;;;;;;;5002734;28;20018;-65
2022/10/22 08:20:41;;;;;;;5.68;2.47;;;;;;;;;;5006081;28;20034;-65
2022/10/22 08:23:06;;;;;;;8.38;2.15;;;;;;;;;;5008255;28;20041;-66
2022/10/22 08:25:32;;;;;;;10.67;1.90;;;;;;;;;;4999941;28;20152;-67
2022/10/22 08:27:57;;;;;;;8.35;2.03;;;;;;;;;;5001659;28;20077;-67
2022/10/22 08:30:22;;;;;;;4.73;1.80;;;;;;;;;;5003327;28;20561;-66
2022/10/22 08:32:47;;;;;;;9.73;2.20;;;;;;;;;;4997614;28;20265;-67
2022/10/22 08:35:13;;;;;;;11.57;2.70;;;;;;;;;;5005986;28;20052;-67
2022/10/22 08:37:38;;;;;;;13.57;2.92;;;;;;;;;;5001427;28;20493;-67
2022/10/22 08:40:03;;;;;;;6.57;2.83;;;;;;;;;;4998216;28;20034;-67
2022/10/22 08:42:37;;;;;;;9.45;3.20;;;;;;;;;;4996556;28;20257;-66
2022/10/22 08:45:11;;;;;;;8.15;2.65;;;;;;;;;;5004239;28;20018;-65
2022/10/22 08:47:36;;;;;;;13.85;2.85;;;;;;;;;;4992091;28;20104;-67
2022/10/22 08:50:02;;;;;;;8.60;2.33;;;;;;;;;;5000822;28;20113;-67
2022/10/22 08:52:27;;;;;;;9.60;2.20;;;;;;;;;;4999414;28;20022;-66
2022/10/22 08:54:59;;;;;;;7.00;2.05;;;;;;;;;;4997169;28;20034;-67
2022/10/22 08:57:24;;;;;;;4.65;1.90;;;;;;;;;;4993586;28;20109;-67
2022/10/22 08:59:58;;;;;;;10.73;3.30;;;;;;;;;;4991683;28;20110;-65
2022/10/22 09:02:42;;;;;;;12.00;2.35;;;;;;;;;;4992932;28;20030;-65
2022/10/22 09:05:14;;;;;;;10.88;3.00;;;;;;;;;;4990134;28;20248;-66
2022/10/22 09:07:41;;;;;;;7.35;2.42;;;;;;;;;;4993303;28;20098;-65
2022/10/22 09:10:08;;;;;;;12.05;2.25;;;;;;;;;;4987929;28;20045;-67
2022/10/22 09:12:33;;;;;;;8.00;2.08;;;;;;;;;;4996955;28;20026;-65
2022/10/22 09:14:58;;;;;;;10.30;3.87;;;;;;;;;;4996642;28;20053;-67
2022/10/22 09:17:37;;;;;;;10.40;2.83;;;;;;;;;;5001298;28;20030;-65
2022/10/22 09:20:22;;;;;;;11.18;2.58;;;;;;;;;;5000878;28;20360;-65
2022/10/22 09:22:53;;;;;;;8.23;2.65;;;;;;;;;;4997226;28;20022;-65
2022/10/22 09:25:22;;;;;;;8.27;2.20;;;;;;;;;;4998829;28;20026;-65
2022/10/22 09:27:48;;;;;;;9.45;2.10;;;;;;;;;;4996952;28;20042;-66
2022/10/22 09:30:17;;;;;;;12.07;2.60;;;;;;;;;;4998451;28;20034;-66
2022/10/22 09:32:42;;;;;;;5.93;2.38;;;;;;;;;;4997053;28;20045;-67
2022/10/22 09:35:10;;;;;;;14.98;2.60;;;;;;;;;;4999775;28;20030;-66
2022/10/22 09:37:35;;;;;;;11.43;2.22;;;;;;;;;;4996381;28;20117;-65
2022/10/22 09:40:04;;;;;;;9.97;3.00;;;;;;;;;;4998654;28;20104;-65
2022/10/22 09:42:32;;;;;;;13.60;2.30;;;;;;;;;;4998913;28;20963;-65
2022/10/22 09:44:58;;;;;;;11.65;2.25;;;;;;;;;;4993576;28;20135;-66
2022/10/22 09:47:32;;;;;;;9.82;2.72;;;;;;;;;;4994877;28;20045;-65
2022/10/22 09:50:09;;;;;;;9.95;2.85;;;;;;;;;;5000269;28;20015;-66
2022/10/22 09:52:35;;;;;;;17.77;2.83;;;;;;;;;;5004255;28;20669;-65
2022/10/22 09:55:00;;;;;;;7.65;2.30;;;;;;;;;;4992896;28;20049;-65
2022/10/22 09:57:27;;;;;;;5.35;1.77;;;;;;;;;;4998151;28;20028;-65
2022/10/22 09:59:53;;;;;;;14.00;2.67;;;;;;;;;;4993231;28;20471;-65
2022/10/22 10:02:18;;;;;;;9.93;2.08;;;;;;;;;;4996855;28;20026;-65
2022/10/22 10:04:51;;;;;;;12.63;2.30;;;;;;;;;;4997418;28;20080;-66
2022/10/22 10:07:21;;;;;;;14.38;2.20;;;;;;;;;;5001144;28;20273;-65
2022/10/22 10:09:46;;;;;;;9.18;2.50;;;;;;;;;;4994474;28;20030;-68
2022/10/22 10:12:17;;;;;;;7.93;2.15;;;;;;;;;;4997683;28;20121;-65
2022/10/22 10:15:05;;;;;;;9.55;2.42;;;;;;;;;;4997094;28;20415;-66
2022/10/22 10:17:35;;;;;;;7.53;2.38;;;;;;;;;;4996239;28;20038;-68
2022/10/22 10:20:09;;;;;;;13.60;2.00;;;;;;;;;;5000635;28;20015;-68
2022/10/22 10:22:50;;;;;;;9.82;2.13;;;;;;;;;;5004546;28;20034;-65
2022/10/22 10:25:27;;;;;;;15.65;2.10;;;;;;;;;;4995736;28;20382;-66
2022/10/22 10:28:15;;;;;;;11.10;2.10;;;;;;;;;;4994408;28;20133;-68
2022/10/22 10:31:03;;;;;;;9.48;2.08;;;;;;;;;;4997369;28;20121;-68
2022/10/22 10:33:28;;;;;;;9.43;2.05;;;;;;;;;;4995033;28;20041;-67
2022/10/22 10:36:08;;;;;;;12.13;2.03;;;;;;;;;;4992081;28;20043;-66
2022/10/22 10:38:51;;;;;;;15.07;2.55;;;;;;;;;;4994682;28;20025;-66
2022/10/22 10:41:19;;;;;;;16.67;2.00;;;;;;;;;;4998872;28;20044;-66
2022/10/22 10:43:50;;;;;;;9.27;1.52;;;;;;;;;;4992854;28;20094;-67
2022/10/22 10:46:34;;;;;;;10.30;2.13;;;;;;;;;;5000999;28;20029;-65
2022/10/22 10:49:02;;;;;;;24.98;2.85;;;;;;;;;;4993094;28;20057;-65
2022/10/22 10:51:27;;;;;;;8.02;1.25;;;;;;;;;;4995734;28;20104;-65
2022/10/22 10:53:58;;;;;;;11.55;1.92;;;;;;;;;;4993728;28;20544;-66
2022/10/22 10:56:42;;;;;;;7.20;1.98;;;;;;;;;;5000377;28;20025;-68
2022/10/22 10:59:26;;;;;;;7.65;1.60;;;;;;;;;;4990589;28;20061;-66
2022/10/22 11:02:00;;;;;;;12.18;2.25;;;;;;;;;;4996956;28;20038;-67
2022/10/22 11:04:28;;;;;;;8.40;1.52;;;;;;;;;;4994329;28;20504;-67
2022/10/22 11:06:56;;;;;;;10.18;1.90;;;;;;;;;;4992304;28;20121;-67
2022/10/22 11:09:26;;;;;;;5.28;1.77;;;;;;;;;;4992442;28;20416;-65
2022/10/22 11:12:02;;;;;;;11.65;2.80;;;;;;;;;;4999463;28;20961;-69
2022/10/22 11:14:39;;;;;;;9.40;1.75;;;;;;;;;;4998972;28;20026;-68
2022/10/22 11:17:13;;;;;;;8.73;1.80;;;;;;;;;;4994053;28;20069;-65
2022/10/22 11:19:42;;;;;;;12.30;2.05;;;;;;;;;;4998550;28;20022;-66
2022/10/22 11:22:26;;;;;;;13.50;2.33;;;;;;;;;;4994287;28;20025;-65
2022/10/22 11:24:54;;;;;;;7.18;2.00;;;;;;;;;;4997351;28;20027;-65
2022/10/22 11:27:19;;;;;;;13.85;1.88;;;;;;;;;;4984887;28;20487;-65
2022/10/22 11:29:49;;;;;;;8.30;2.43;;;;;;;;;;4996635;28;20019;-68
2022/10/22 11:32:17;;;;;;;22.23;2.33;;;;;;;;;;4997201;28;20268;-66
2022/10/22 11:34:42;;;;;;;9.85;1.75;;;;;;;;;;4992477;28;20046;-65
2022/10/22 11:37:09;;;;;;;12.60;2.17;;;;;;;;;;4993548;28;20022;-68
2022/10/22 11:39:49;;;;;;;10.35;2.30;;;;;;;;;;4993712;28;20822;-65
2022/10/22 11:42:17;;;;;;;14.07;6.03;;;;;;;;;;4995611;28;20033;-66
2022/10/22 11:44:46;;;;;;;19.73;8.93;;;;;;;;;;4992996;28;20048;-65
2022/10/22 11:47:24;;;;;;;14.37;4.60;;;;;;;;;;4996555;28;20105;-65
2022/10/22 11:50:00;;;;;;;16.63;5.13;;;;;;;;;;4995473;28;20031;-66
2022/10/22 11:52:36;;;;;;;17.45;3.17;;;;;;;;;;4985711;28;20026;-66
2022/10/22 11:55:01;;;;;;;9.95;2.40;;;;;;;;;;4995681;28;20033;-66
2022/10/22 11:57:28;;;;;;;9.75;1.67;;;;;;;;;;4992521;28;20014;-67
2022/10/22 11:59:58;;;;;;;4.97;0.82;;;;;;;;;;4995153;28;20077;-69
2022/10/22 12:02:23;;;;;;;7.30;1.33;;;;;;;;;;4998016;28;20176;-67
2022/10/22 12:04:48;;;;;;;6.87;1.53;;;;;;;;;;4997460;28;20535;-65
2022/10/22 12:07:28;;;;;;;4.63;1.00;;;;;;;;;;4998700;28;20022;-68
2022/10/22 12:09:54;;;;;;;9.85;1.20;;;;;;;;;;4995229;28;20380;-68
2022/10/22 12:12:19;;;;;;;9.48;1.45;;;;;;;;;;4999861;28;20058;-65
2022/10/22 12:14:56;;;;;;;5.80;1.13;;;;;;;;;;4993986;28;20475;-66
2022/10/22 12:17:21;;;;;;;6.63;1.05;;;;;;;;;;4998995;28;20042;-65
2022/10/22 12:19:48;;;;;;;3.20;0.85;;;;;;;;;;4994319;28;20097;-67
2022/10/22 12:22:14;;;;;;;6.60;1.42;;;;;;;;;;5004805;28;20076;-65
2022/10/22 12:24:40;;;;;;;17.77;2.03;;;;;;;;;;5000471;28;20030;-65
2022/10/22 12:27:19;;;;;;;7.57;2.25;;;;;;;;;;4996027;28;20467;-65
2022/10/22 12:29:44;;;;;;;12.10;1.63;;;;;;;;;;4998151;28;20113;-67
2022/10/22 12:32:11;;;;;;;6.93;1.38;;;;;;;;;;5006078;28;20104;-66
2022/10/22 12:34:43;;;;;;;6.00;1.08;;;;;;;;;;4999835;28;20024;-68
2022/10/22 12:37:09;;;;;;;7.38;1.40;;;;;;;;;;4992969;28;20025;-68
2022/10/22 12:39:34;;;;;;;3.45;0.95;;;;;;;;;;4997357;28;20096;-66
2022/10/22 12:41:59;;;;;;;6.25;0.93;;;;;;;;;;4996785;28;20182;-68
2022/10/22 12:44:24;;;;;;;6.32;1.05;;;;;;;;;;5001732;28;20529;-66
2022/10/22 12:46:50;;;;;;;8.47;1.50;;;;;;;;;;5001713;28;20029;-69
2022/10/22 12:49:15;;;;;;;6.57;1.58;;;;;;;;;;5001606;28;20628;-66
2022/10/22 12:51:40;;;;;;;7.88;1.65;;;;;;;;;;5002085;28;20049;-69
2022/10/22 12:54:06;;;;;;;8.00;1.30;;;;;;;;;;4995775;28;20026;-68
2022/10/22 12:56:32;;;;;;;11.57;1.45;;;;;;;;;;4991775;28;20313;-66
2022/10/22 12:58:59;;;;;;;2.10;0.57;;;;;;;;;;4996245;28;20113;-66
2022/10/22 13:01:26;;;;;;;7.25;2.00;;;;;;;;;;4998576;28;20486;-66
2022/10/22 13:04:02;;;;;;;5.47;1.02;;;;;;;;;;4994458;28;20081;-66
2022/10/22 13:06:28;;;;;;;6.63;0.98;;;;;;;;;;4996280;28;20129;-67
2022/10/22 13:09:01;;;;;;;9.03;0.90;;;;;;;;;;4996936;28;20101;-68
2022/10/22 13:11:32;;;;;;;6.43;1.00;;;;;;;;;;4998640;28;20026;-67
2022/10/22 13:14:02;;;;;;;9.05;1.08;;;;;;;;;;4997665;28;20023;-66
2022/10/22 13:16:28;;;;;;;3.17;0.90;;;;;;;;;;5004172;28;20022;-66
2022/10/22 13:18:54;;;;;;;6.65;0.90;;;;;;;;;;5000259;28;20550;-68
2022/10/22 13:21:33;;;;;;;8.27;1.27;;;;;;;;;;5002249;28;20033;-66
2022/10/22 13:24:02;;;;;;;6.88;0.98;;;;;;;;;;4999707;28;20092;-68
2022/10/22 13:26:32;;;;;;;9.07;0.90;;;;;;;;;;4995678;28;20025;-66
2022/10/22 13:28:59;;;;;;;;;;;;;;;;;;5001898;28;20285;-65
2022/10/22 13:31:26;;;;;;;5.85;0.80;;;;;;;;;;5002196;28;19912;-67
2022/10/22 13:33:53;;;;;;;3.92;0.57;;;;;;;;;;4998085;28;20046;-67
2022/10/22 13:36:19;;;;;;;5.80;0.88;;;;;;;;;;4998269;28;20581;-69
2022/10/22 13:38:44;;;;;;;4.35;1.02;;;;;;;;;;4994484;28;20110;-66
2022/10/22 13:41:32;;;;;;;6.50;0.87;;;;;;;;;;5007262;28;20080;-68
2022/10/22 13:43:57;;;;;;;7.45;0.85;;;;;;;;;;4998106;28;20357;-69
2022/10/22 13:46:23;;;;;;;7.57;1.20;;;;;;;;;;4995831;28;20479;-67
2022/10/22 13:48:51;;;;;;;13.38;1.20;;;;;;;;;;4996789;28;20426;-66
2022/10/22 13:51:18;;;;;;;3.80;0.75;;;;;;;;;;5002068;28;20049;-66
2022/10/22 13:53:44;;;;;;;7.10;0.77;;;;;;;;;;4997650;28;20709;-68
2022/10/22 13:56:12;;;;;;;4.55;0.70;;;;;;;;;;4995041;28;20030;-66
2022/10/22 13:58:37;;;;;;;4.13;0.73;;;;;;;;;;4992957;28;20143;-66
2022/10/22 14:01:07;;;;;;;6.68;1.08;;;;;;;;;;5000684;28;20105;-66
2022/10/22 14:03:33;;;;;;;5.65;1.00;;;;;;;;;;4999161;28;20037;-66
2022/10/22 14:05:58;;;;;;;8.85;1.40;;;;;;;;;;4992851;28;20030;-67
2022/10/22 14:08:24;;;;;;;7.60;1.17;;;;;;;;;;4998548;28;20025;-66
2022/10/22 14:10:50;;;;;;;5.82;1.15;;;;;;;;;;4990255;28;20025;-68
2022/10/22 14:13:16;;;;;;;8.68;1.35;;;;;;;;;;5000454;28;20022;-66
2022/10/22 14:15:41;;;;;;;7.88;0.85;;;;;;;;;;5001501;28;20018;-66
2022/10/22 14:18:10;;;;;;;4.28;0.90;;;;;;;;;;5005426;28;20426;-66
2022/10/22 14:20:36;;;;;;;9.10;1.10;;;;;;;;;;4993627;28;20030;-66
2022/10/22 14:23:10;;;;;;;9.82;1.38;;;;;;;;;;4998280;28;20026;-65
2022/10/22 14:25:35;;;;;;;4.38;0.85;;;;;;;;;;4996396;28;20083;-66
2022/10/22 14:28:00;;;;;;;5.78;1.13;;;;;;;;;;4992487;28;20026;-67
2022/10/22 14:30:28;;;;;;;9.73;1.20;;;;;;;;;;4994829;28;20026;-69
2022/10/22 14:32:53;;;;;;;7.18;1.45;;;;;;;;;;4992896;28;20042;-66
2022/10/22 14:35:20;;;;;;;9.83;1.10;;;;;;;;;;5000318;28;20060;-65
2022/10/22 14:37:45;;;;;;;5.70;1.10;;;;;;;;;;4994924;28;20015;-69
2022/10/22 14:40:15;;;;;;;3.40;0.98;;;;;;;;;;5000537;28;20026;-66
2022/10/22 14:42:41;;;;;;;7.35;1.85;;;;;;;;;;4995215;28;20052;-67